sensor_id;sensor_type;location;lat;lon;timestamp;pressure;altitude;pressure_sealevel;temperature;humidity
22653;BME280;11493;43.344;26.226;2023-06-01T00:02:26;99407.00;;;14.87;100.00
22653;BME280;11493;43.344;26.226;2023-06-01T00:04:53;99401.81;;;14.86;100.00
22653;BME280;11493;43.344;26.226;2023-06-01T00:07:20;99400.44;;;14.79;100.00
22653;BME280;11493;43.344;26.226;2023-06-01T00:09:47;99390.28;;;14.84;100.00
22653;BME280;11493;43.344;26.226;2023-06-01T00:12:15;99398.34;;;14.89;100.00
22653;BME280;11493;43.344;26.226;2023-06-01T00:14:42;99385.56;;;14.84;100.00
22653;BME280;11493;43.344;26.226;2023-06-01T00:17:09;99391.78;;;14.81;100.00
22653;BME280;11493;43.344;26.226;2023-06-01T00:19:36;99387.88;;;14.82;100.00
22653;BME280;11493;43.344;26.226;2023-06-01T00:22:05;99394.28;;;14.74;100.00
22653;BME280;11493;43.344;26.226;2023-06-01T00:24:34;99381.81;;;14.68;100.00
22653;BME280;11493;43.344;26.226;2023-06-01T00:27:01;99386.41;;;14.64;100.00
22653;BME280;11493;43.344;26.226;2023-06-01T00:29:29;99388.03;;;14.65;100.00
22653;BME280;11493;43.344;26.226;2023-06-01T00:32:00;99379.94;;;14.60;100.00
22653;BME280;11493;43.344;26.226;2023-06-01T00:34:27;99386.28;;;14.60;100.00
22653;BME280;11493;43.344;26.226;2023-06-01T00:36:54;99380.94;;;14.55;100.00
22653;BME280;11493;43.344;26.226;2023-06-01T00:39:21;99380.63;;;14.57;100.00
22653;BME280;11493;43.344;26.226;2023-06-01T00:41:48;99361.56;;;14.34;100.00
22653;BME280;11493;43.344;26.226;2023-06-01T00:44:15;99388.66;;;14.50;100.00
22653;BME280;11493;43.344;26.226;2023-06-01T00:46:42;99381.38;;;14.45;100.00
22653;BME280;11493;43.344;26.226;2023-06-01T00:49:09;99393.28;;;14.37;100.00
22653;BME280;11493;43.344;26.226;2023-06-01T00:51:37;99387.63;;;14.33;100.00
22653;BME280;11493;43.344;26.226;2023-06-01T00:54:04;99381.81;;;14.26;100.00
22653;BME280;11493;43.344;26.226;2023-06-01T00:56:31;99379.25;;;14.21;100.00
22653;BME280;11493;43.344;26.226;2023-06-01T00:59:00;99398.41;;;14.26;100.00
22653;BME280;11493;43.344;26.226;2023-06-01T01:01:26;99398.41;;;14.26;100.00
22653;BME280;11493;43.344;26.226;2023-06-01T01:03:54;99398.41;;;14.26;100.00
22653;BME280;11493;43.344;26.226;2023-06-01T01:06:53;99397.47;;;14.22;100.00
22653;BME280;11493;43.344;26.226;2023-06-01T01:09:44;99397.19;;;14.15;100.00
22653;BME280;11493;43.344;26.226;2023-06-01T01:12:29;99382.97;;;14.04;100.00
22653;BME280;11493;43.344;26.226;2023-06-01T01:17:36;99396.28;;;14.11;100.00
22653;BME280;11493;43.344;26.226;2023-06-01T01:20:09;99399.50;;;14.13;100.00
22653;BME280;11493;43.344;26.226;2023-06-01T01:22:53;99403.41;;;14.12;100.00
22653;BME280;11493;43.344;26.226;2023-06-01T01:26:03;99401.25;;;14.18;100.00
22653;BME280;11493;43.344;26.226;2023-06-01T01:28:40;99411.31;;;14.22;100.00
22653;BME280;11493;43.344;26.226;2023-06-01T01:31:19;99418.00;;;14.21;100.00
22653;BME280;11493;43.344;26.226;2023-06-01T01:33:53;99410.03;;;14.20;100.00
22653;BME280;11493;43.344;26.226;2023-06-01T01:36:22;99411.03;;;14.15;100.00
22653;BME280;11493;43.344;26.226;2023-06-01T01:38:50;99393.50;;;14.11;100.00
22653;BME280;11493;43.344;26.226;2023-06-01T01:41:17;99402.19;;;14.22;100.00
22653;BME280;11493;43.344;26.226;2023-06-01T01:43:44;99389.22;;;14.13;100.00
22653;BME280;11493;43.344;26.226;2023-06-01T01:46:25;99403.22;;;14.17;100.00
22653;BME280;11493;43.344;26.226;2023-06-01T01:49:20;99411.38;;;14.13;100.00
22653;BME280;11493;43.344;26.226;2023-06-01T01:54:43;99398.44;;;14.05;100.00
22653;BME280;11493;43.344;26.226;2023-06-01T01:57:12;99404.84;;;13.97;100.00
22653;BME280;11493;43.344;26.226;2023-06-01T01:59:41;99405.16;;;13.96;100.00
22653;BME280;11493;43.344;26.226;2023-06-01T02:02:10;99410.69;;;13.96;100.00
22653;BME280;11493;43.344;26.226;2023-06-01T02:04:44;99406.19;;;13.91;100.00
22653;BME280;11493;43.344;26.226;2023-06-01T02:07:12;99388.00;;;13.81;100.00
22653;BME280;11493;43.344;26.226;2023-06-01T02:09:40;99398.75;;;13.83;100.00
22653;BME280;11493;43.344;26.226;2023-06-01T02:12:09;99410.13;;;13.81;100.00
22653;BME280;11493;43.344;26.226;2023-06-01T02:14:36;99390.97;;;13.76;100.00
22653;BME280;11493;43.344;26.226;2023-06-01T02:17:03;99396.34;;;13.73;100.00
22653;BME280;11493;43.344;26.226;2023-06-01T02:19:32;99408.69;;;13.75;100.00
22653;BME280;11493;43.344;26.226;2023-06-01T02:21:59;99407.94;;;13.66;100.00
22653;BME280;11493;43.344;26.226;2023-06-01T02:24:26;99415.28;;;13.62;100.00
22653;BME280;11493;43.344;26.226;2023-06-01T02:26:54;99411.56;;;13.58;100.00
22653;BME280;11493;43.344;26.226;2023-06-01T02:29:22;99409.25;;;13.60;100.00
22653;BME280;11493;43.344;26.226;2023-06-01T02:31:50;99410.59;;;13.54;100.00
22653;BME280;11493;43.344;26.226;2023-06-01T02:34:18;99404.25;;;13.54;100.00
22653;BME280;11493;43.344;26.226;2023-06-01T02:36:46;99406.31;;;13.65;100.00
22653;BME280;11493;43.344;26.226;2023-06-01T02:39:16;99400.31;;;13.63;100.00
22653;BME280;11493;43.344;26.226;2023-06-01T02:41:44;99411.22;;;13.60;100.00
22653;BME280;11493;43.344;26.226;2023-06-01T02:44:11;99407.66;;;13.59;100.00
22653;BME280;11493;43.344;26.226;2023-06-01T02:46:38;99412.03;;;13.60;100.00
22653;BME280;11493;43.344;26.226;2023-06-01T02:49:05;99411.66;;;13.70;100.00
22653;BME280;11493;43.344;26.226;2023-06-01T02:51:32;99415.84;;;13.76;100.00
22653;BME280;11493;43.344;26.226;2023-06-01T02:54:20;99419.09;;;13.78;100.00
22653;BME280;11493;43.344;26.226;2023-06-01T02:56:47;99425.97;;;13.72;100.00
22653;BME280;11493;43.344;26.226;2023-06-01T02:59:30;99412.03;;;13.60;100.00
22653;BME280;11493;43.344;26.226;2023-06-01T03:02:00;99411.56;;;13.58;100.00
22653;BME280;11493;43.344;26.226;2023-06-01T03:04:28;99421.63;;;13.63;100.00
22653;BME280;11493;43.344;26.226;2023-06-01T03:06:59;99418.84;;;13.63;100.00
22653;BME280;11493;43.344;26.226;2023-06-01T03:09:33;99425.19;;;13.63;100.00
22653;BME280;11493;43.344;26.226;2023-06-01T03:12:20;99414.31;;;13.58;100.00
22653;BME280;11493;43.344;26.226;2023-06-01T03:14:47;99419.81;;;13.67;100.00
22653;BME280;11493;43.344;26.226;2023-06-01T03:17:14;99411.03;;;13.65;100.00
22653;BME280;11493;43.344;26.226;2023-06-01T03:19:41;99407.59;;;13.68;100.00
22653;BME280;11493;43.344;26.226;2023-06-01T03:22:21;99416.34;;;13.78;100.00
22653;BME280;11493;43.344;26.226;2023-06-01T03:24:49;99418.44;;;13.81;100.00
22653;BME280;11493;43.344;26.226;2023-06-01T03:27:19;99434.78;;;13.95;100.00
22653;BME280;11493;43.344;26.226;2023-06-01T03:29:47;99431.97;;;14.04;100.00
22653;BME280;11493;43.344;26.226;2023-06-01T03:32:14;99429.47;;;14.11;100.00
22653;BME280;11493;43.344;26.226;2023-06-01T03:34:42;99428.59;;;14.19;100.00
22653;BME280;11493;43.344;26.226;2023-06-01T03:37:09;99429.88;;;14.22;100.00
22653;BME280;11493;43.344;26.226;2023-06-01T03:39:37;99434.00;;;14.36;100.00
22653;BME280;11493;43.344;26.226;2023-06-01T03:42:09;99435.91;;;14.44;100.00
22653;BME280;11493;43.344;26.226;2023-06-01T03:44:38;99435.66;;;14.58;100.00
22653;BME280;11493;43.344;26.226;2023-06-01T03:47:06;99429.22;;;14.66;100.00
22653;BME280;11493;43.344;26.226;2023-06-01T03:49:33;99432.19;;;14.82;100.00
22653;BME280;11493;43.344;26.226;2023-06-01T03:52:03;99428.63;;;14.94;100.00
22653;BME280;11493;43.344;26.226;2023-06-01T03:54:32;99433.59;;;15.00;100.00
22653;BME280;11493;43.344;26.226;2023-06-01T03:56:59;99437.31;;;15.04;100.00
22653;BME280;11493;43.344;26.226;2023-06-01T03:59:26;99434.59;;;15.17;100.00
22653;BME280;11493;43.344;26.226;2023-06-01T04:01:54;99424.22;;;15.26;100.00
22653;BME280;11493;43.344;26.226;2023-06-01T04:04:25;99438.31;;;15.33;100.00
22653;BME280;11493;43.344;26.226;2023-06-01T04:06:55;99444.81;;;15.49;100.00
22653;BME280;11493;43.344;26.226;2023-06-01T04:09:29;99431.19;;;15.56;100.00
22653;BME280;11493;43.344;26.226;2023-06-01T04:11:57;99440.78;;;15.71;100.00
22653;BME280;11493;43.344;26.226;2023-06-01T04:14:24;99441.16;;;15.82;100.00
22653;BME280;11493;43.344;26.226;2023-06-01T04:16:52;99435.72;;;15.85;100.00
22653;BME280;11493;43.344;26.226;2023-06-01T04:19:19;99452.47;;;16.01;100.00
22653;BME280;11493;43.344;26.226;2023-06-01T04:21:50;99449.22;;;16.11;100.00
22653;BME280;11493;43.344;26.226;2023-06-01T04:24:18;99448.88;;;16.25;100.00
22653;BME280;11493;43.344;26.226;2023-06-01T04:26:45;99447.56;;;16.34;100.00
22653;BME280;11493;43.344;26.226;2023-06-01T04:29:12;99440.84;;;16.35;100.00
22653;BME280;11493;43.344;26.226;2023-06-01T04:31:39;99439.44;;;16.41;100.00
22653;BME280;11493;43.344;26.226;2023-06-01T04:34:08;99461.84;;;16.61;100.00
22653;BME280;11493;43.344;26.226;2023-06-01T04:36:36;99459.97;;;16.77;100.00
22653;BME280;11493;43.344;26.226;2023-06-01T04:39:08;99456.09;;;16.94;100.00
22653;BME280;11493;43.344;26.226;2023-06-01T04:41:36;99453.97;;;17.03;100.00
22653;BME280;11493;43.344;26.226;2023-06-01T04:44:03;99456.03;;;17.22;100.00
22653;BME280;11493;43.344;26.226;2023-06-01T04:46:34;99458.22;;;17.28;100.00
22653;BME280;11493;43.344;26.226;2023-06-01T04:49:02;99455.25;;;17.37;100.00
22653;BME280;11493;43.344;26.226;2023-06-01T04:51:29;99466.78;;;17.51;100.00
22653;BME280;11493;43.344;26.226;2023-06-01T04:53:59;99458.47;;;17.67;100.00
22653;BME280;11493;43.344;26.226;2023-06-01T04:56:26;99469.66;;;17.86;100.00
22653;BME280;11493;43.344;26.226;2023-06-01T04:58:56;99467.69;;;18.02;100.00
22653;BME280;11493;43.344;26.226;2023-06-01T05:01:26;99465.06;;;18.10;100.00
22653;BME280;11493;43.344;26.226;2023-06-01T05:03:56;99466.75;;;18.14;100.00
22653;BME280;11493;43.344;26.226;2023-06-01T05:06:25;99465.31;;;18.20;100.00
22653;BME280;11493;43.344;26.226;2023-06-01T05:08:53;99464.75;;;18.30;100.00
22653;BME280;11493;43.344;26.226;2023-06-01T05:11:21;99460.81;;;18.31;100.00
22653;BME280;11493;43.344;26.226;2023-06-01T05:13:48;99447.16;;;18.26;100.00
22653;BME280;11493;43.344;26.226;2023-06-01T05:16:18;99474.25;;;18.45;100.00
22653;BME280;11493;43.344;26.226;2023-06-01T05:18:46;99476.03;;;18.53;100.00
22653;BME280;11493;43.344;26.226;2023-06-01T05:21:13;99471.69;;;18.56;100.00
22653;BME280;11493;43.344;26.226;2023-06-01T05:23:40;99468.06;;;18.71;100.00
22653;BME280;11493;43.344;26.226;2023-06-01T05:26:07;99460.06;;;18.69;100.00
22653;BME280;11493;43.344;26.226;2023-06-01T05:28:35;99466.22;;;18.79;100.00
22653;BME280;11493;43.344;26.226;2023-06-01T05:31:05;99476.00;;;18.88;100.00
22653;BME280;11493;43.344;26.226;2023-06-01T05:33:38;99480.97;;;18.98;100.00
22653;BME280;11493;43.344;26.226;2023-06-01T05:36:05;99475.09;;;19.03;100.00
22653;BME280;11493;43.344;26.226;2023-06-01T05:38:33;99472.03;;;19.09;100.00
22653;BME280;11493;43.344;26.226;2023-06-01T05:41:00;99485.00;;;19.20;100.00
22653;BME280;11493;43.344;26.226;2023-06-01T05:43:28;99483.66;;;19.33;100.00
22653;BME280;11493;43.344;26.226;2023-06-01T05:45:57;99477.69;;;19.35;100.00
22653;BME280;11493;43.344;26.226;2023-06-01T05:48:24;99490.09;;;19.57;100.00
22653;BME280;11493;43.344;26.226;2023-06-01T05:50:53;99498.34;;;19.73;100.00
22653;BME280;11493;43.344;26.226;2023-06-01T05:53:21;99487.25;;;19.76;100.00
22653;BME280;11493;43.344;26.226;2023-06-01T05:55:51;99487.06;;;19.88;100.00
22653;BME280;11493;43.344;26.226;2023-06-01T05:58:19;99482.97;;;20.05;100.00
22653;BME280;11493;43.344;26.226;2023-06-01T06:00:47;99480.78;;;20.21;100.00
22653;BME280;11493;43.344;26.226;2023-06-01T06:03:14;99484.81;;;20.47;100.00
22653;BME280;11493;43.344;26.226;2023-06-01T06:05:41;99484.16;;;20.57;100.00
22653;BME280;11493;43.344;26.226;2023-06-01T06:08:08;99493.16;;;20.73;98.47
22653;BME280;11493;43.344;26.226;2023-06-01T06:10:37;99490.84;;;20.79;96.99
22653;BME280;11493;43.344;26.226;2023-06-01T06:13:04;99497.34;;;20.90;96.71
22653;BME280;11493;43.344;26.226;2023-06-01T06:15:31;99495.25;;;20.80;96.20
22653;BME280;11493;43.344;26.226;2023-06-01T06:17:58;99493.41;;;20.61;97.17
22653;BME280;11493;43.344;26.226;2023-06-01T06:20:25;99493.88;;;20.66;97.17
22653;BME280;11493;43.344;26.226;2023-06-01T06:22:52;99494.44;;;20.79;97.50
22653;BME280;11493;43.344;26.226;2023-06-01T06:25:19;99488.84;;;20.79;96.37
22653;BME280;11493;43.344;26.226;2023-06-01T06:27:47;99495.47;;;20.97;95.90
22653;BME280;11493;43.344;26.226;2023-06-01T06:30:14;99500.59;;;20.92;95.23
22653;BME280;11493;43.344;26.226;2023-06-01T06:32:42;99486.09;;;21.16;94.08
22653;BME280;11493;43.344;26.226;2023-06-01T06:35:09;99485.16;;;21.35;94.12
22653;BME280;11493;43.344;26.226;2023-06-01T06:37:42;99488.09;;;21.49;93.95
22653;BME280;11493;43.344;26.226;2023-06-01T06:40:10;99489.41;;;21.62;92.46
22653;BME280;11493;43.344;26.226;2023-06-01T06:42:37;99491.75;;;21.57;93.20
22653;BME280;11493;43.344;26.226;2023-06-01T06:45:05;99496.63;;;21.63;93.78
22653;BME280;11493;43.344;26.226;2023-06-01T06:47:32;99505.03;;;21.63;92.28
22653;BME280;11493;43.344;26.226;2023-06-01T06:49:59;99491.09;;;21.71;91.30
22653;BME280;11493;43.344;26.226;2023-06-01T06:52:27;99491.84;;;21.68;90.55
22653;BME280;11493;43.344;26.226;2023-06-01T06:54:54;99495.91;;;21.74;90.80
22653;BME280;11493;43.344;26.226;2023-06-01T06:57:21;99484.75;;;21.77;91.37
22653;BME280;11493;43.344;26.226;2023-06-01T06:59:48;99502.94;;;21.97;91.07
22653;BME280;11493;43.344;26.226;2023-06-01T07:02:15;99476.13;;;21.96;90.69
22653;BME280;11493;43.344;26.226;2023-06-01T07:04:42;99487.44;;;22.07;91.33
22653;BME280;11493;43.344;26.226;2023-06-01T07:07:09;99501.22;;;22.30;91.17
22653;BME280;11493;43.344;26.226;2023-06-01T07:09:36;99492.91;;;22.44;88.39
22653;BME280;11493;43.344;26.226;2023-06-01T07:12:04;99497.44;;;22.67;85.62
22653;BME280;11493;43.344;26.226;2023-06-01T07:14:33;99477.06;;;22.73;86.71
22653;BME280;11493;43.344;26.226;2023-06-01T07:17:00;99501.22;;;22.88;86.26
22653;BME280;11493;43.344;26.226;2023-06-01T07:19:27;99488.03;;;23.00;84.92
22653;BME280;11493;43.344;26.226;2023-06-01T07:22:00;99488.50;;;23.19;85.81
22653;BME280;11493;43.344;26.226;2023-06-01T07:24:27;99497.75;;;23.27;82.76
22653;BME280;11493;43.344;26.226;2023-06-01T07:26:55;99490.50;;;23.22;80.04
22653;BME280;11493;43.344;26.226;2023-06-01T07:29:22;99504.16;;;23.24;83.03
22653;BME280;11493;43.344;26.226;2023-06-01T07:31:52;99494.09;;;23.19;82.54
22653;BME280;11493;43.344;26.226;2023-06-01T07:34:19;99500.13;;;23.25;81.66
22653;BME280;11493;43.344;26.226;2023-06-01T07:36:48;99506.56;;;23.25;80.47
22653;BME280;11493;43.344;26.226;2023-06-01T07:39:16;99513.38;;;23.24;79.12
22653;BME280;11493;43.344;26.226;2023-06-01T07:41:46;99496.16;;;23.33;78.48
22653;BME280;11493;43.344;26.226;2023-06-01T07:44:13;99491.41;;;23.51;77.00
22653;BME280;11493;43.344;26.226;2023-06-01T07:46:44;99492.25;;;23.63;78.82
22653;BME280;11493;43.344;26.226;2023-06-01T07:49:15;99496.28;;;23.69;77.43
22653;BME280;11493;43.344;26.226;2023-06-01T07:51:42;99497.50;;;23.75;76.89
22653;BME280;11493;43.344;26.226;2023-06-01T07:54:10;99491.06;;;23.74;76.47
22653;BME280;11493;43.344;26.226;2023-06-01T07:56:37;99487.44;;;23.81;75.77
22653;BME280;11493;43.344;26.226;2023-06-01T07:59:05;99481.03;;;23.77;73.45
22653;BME280;11493;43.344;26.226;2023-06-01T08:01:31;99482.63;;;23.78;73.24
22653;BME280;11493;43.344;26.226;2023-06-01T08:03:59;99486.66;;;23.77;71.97
22653;BME280;11493;43.344;26.226;2023-06-01T08:06:28;99477.00;;;23.71;74.13
22653;BME280;11493;43.344;26.226;2023-06-01T08:08:55;99480.22;;;23.80;73.88
22653;BME280;11493;43.344;26.226;2023-06-01T08:11:22;99479.00;;;23.88;72.69
22653;BME280;11493;43.344;26.226;2023-06-01T08:13:50;99473.78;;;23.90;73.56
22653;BME280;11493;43.344;26.226;2023-06-01T08:16:17;99473.78;;;23.83;71.82
22653;BME280;11493;43.344;26.226;2023-06-01T08:18:44;99467.38;;;23.86;73.76
22653;BME280;11493;43.344;26.226;2023-06-01T08:21:11;99469.38;;;23.92;73.80
22653;BME280;11493;43.344;26.226;2023-06-01T08:23:38;99452.91;;;23.95;72.54
22653;BME280;11493;43.344;26.226;2023-06-01T08:26:05;99455.31;;;24.03;70.24
22653;BME280;11493;43.344;26.226;2023-06-01T08:28:32;99458.53;;;24.12;70.07
22653;BME280;11493;43.344;26.226;2023-06-01T08:31:00;99456.53;;;24.13;68.78
22653;BME280;11493;43.344;26.226;2023-06-01T08:33:28;99448.09;;;24.27;65.04
22653;BME280;11493;43.344;26.226;2023-06-01T08:35:55;99451.31;;;24.11;64.94
22653;BME280;11493;43.344;26.226;2023-06-01T08:38:22;99443.69;;;24.08;66.41
22653;BME280;11493;43.344;26.226;2023-06-01T08:40:50;99440.06;;;24.04;67.92
22653;BME280;11493;43.344;26.226;2023-06-01T08:43:19;99440.84;;;24.22;68.48
22653;BME280;11493;43.344;26.226;2023-06-01T08:45:47;99446.06;;;24.42;66.77
22653;BME280;11493;43.344;26.226;2023-06-01T08:48:17;99439.25;;;24.43;67.92
22653;BME280;11493;43.344;26.226;2023-06-01T08:50:49;99438.00;;;24.51;67.72
22653;BME280;11493;43.344;26.226;2023-06-01T08:53:20;99429.13;;;24.56;65.25
22653;BME280;11493;43.344;26.226;2023-06-01T08:55:54;99446.91;;;24.28;66.40
22653;BME280;11493;43.344;26.226;2023-06-01T08:58:22;99427.59;;;24.41;67.47
22653;BME280;11493;43.344;26.226;2023-06-01T09:00:51;99429.53;;;24.54;65.94
22653;BME280;11493;43.344;26.226;2023-06-01T09:03:20;99436.75;;;24.66;63.55
22653;BME280;11493;43.344;26.226;2023-06-01T09:05:48;99430.28;;;24.69;62.93
22653;BME280;11493;43.344;26.226;2023-06-01T09:08:15;99425.84;;;24.75;62.90
22653;BME280;11493;43.344;26.226;2023-06-01T09:10:42;99426.22;;;24.84;64.18
22653;BME280;11493;43.344;26.226;2023-06-01T09:13:10;99431.81;;;24.95;61.82
22653;BME280;11493;43.344;26.226;2023-06-01T09:15:50;99406.06;;;24.93;61.20
22653;BME280;11493;43.344;26.226;2023-06-01T09:18:18;99420.94;;;25.01;61.11
22653;BME280;11493;43.344;26.226;2023-06-01T09:20:45;99423.38;;;24.99;63.98
22653;BME280;11493;43.344;26.226;2023-06-01T09:23:23;99430.69;;;24.71;59.51
22653;BME280;11493;43.344;26.226;2023-06-01T09:26:04;99421.41;;;24.78;58.55
22653;BME280;11493;43.344;26.226;2023-06-01T09:28:56;99419.31;;;25.07;61.41
22653;BME280;11493;43.344;26.226;2023-06-01T09:31:46;99410.00;;;25.17;56.62
22653;BME280;11493;43.344;26.226;2023-06-01T09:34:16;99416.41;;;25.21;56.05
22653;BME280;11493;43.344;26.226;2023-06-01T09:36:55;99399.53;;;25.21;55.23
22653;BME280;11493;43.344;26.226;2023-06-01T09:39:24;99413.59;;;25.25;53.90
22653;BME280;11493;43.344;26.226;2023-06-01T09:41:58;99406.63;;;25.36;54.26
22653;BME280;11493;43.344;26.226;2023-06-01T09:44:28;99409.81;;;25.45;54.13
22653;BME280;11493;43.344;26.226;2023-06-01T09:47:03;99395.75;;;25.38;54.74
22653;BME280;11493;43.344;26.226;2023-06-01T09:49:32;99414.50;;;25.63;53.97
22653;BME280;11493;43.344;26.226;2023-06-01T09:54:38;99422.47;;;25.78;52.95
22653;BME280;11493;43.344;26.226;2023-06-01T09:57:05;99400.41;;;25.66;53.14
22653;BME280;11493;43.344;26.226;2023-06-01T09:59:45;99392.66;;;25.81;54.38
22653;BME280;11493;43.344;26.226;2023-06-01T10:02:15;99405.84;;;25.91;52.36
22653;BME280;11493;43.344;26.226;2023-06-01T10:04:51;99382.91;;;25.89;48.50
22653;BME280;11493;43.344;26.226;2023-06-01T10:07:21;99400.44;;;26.07;46.98
22653;BME280;11493;43.344;26.226;2023-06-01T10:09:56;99398.69;;;26.20;46.27
22653;BME280;11493;43.344;26.226;2023-06-01T10:12:25;99391.78;;;26.25;47.73
22653;BME280;11493;43.344;26.226;2023-06-01T10:14:55;99397.75;;;26.38;45.60
22653;BME280;11493;43.344;26.226;2023-06-01T10:17:22;99381.56;;;26.42;43.66
22653;BME280;11493;43.344;26.226;2023-06-01T10:19:51;99383.16;;;26.43;44.81
22653;BME280;11493;43.344;26.226;2023-06-01T10:22:18;99379.94;;;26.44;47.51
22653;BME280;11493;43.344;26.226;2023-06-01T10:24:45;99373.69;;;26.60;45.98
22653;BME280;11493;43.344;26.226;2023-06-01T10:29:49;99378.00;;;26.72;46.13
22653;BME280;11493;43.344;26.226;2023-06-01T10:35:04;99366.53;;;26.82;48.09
22653;BME280;11493;43.344;26.226;2023-06-01T10:37:32;99369.63;;;26.92;46.46
22653;BME280;11493;43.344;26.226;2023-06-01T10:42:39;99362.28;;;27.01;40.63
22653;BME280;11493;43.344;26.226;2023-06-01T10:45:07;99349.28;;;27.07;40.96
22653;BME280;11493;43.344;26.226;2023-06-01T10:52:33;99344.31;;;27.15;41.97
22653;BME280;11493;43.344;26.226;2023-06-01T10:57:38;99346.44;;;27.34;41.56
22653;BME280;11493;43.344;26.226;2023-06-01T11:00:18;99340.69;;;27.41;41.24
22653;BME280;11493;43.344;26.226;2023-06-01T11:08:04;99330.41;;;27.51;40.84
22653;BME280;11493;43.344;26.226;2023-06-01T11:13:18;99336.22;;;27.67;41.77
22653;BME280;11493;43.344;26.226;2023-06-01T11:18:46;99329.50;;;28.04;41.76
22653;BME280;11493;43.344;26.226;2023-06-01T11:21:19;99320.38;;;28.17;41.69
22653;BME280;11493;43.344;26.226;2023-06-01T11:23:52;99302.16;;;28.18;42.23
22653;BME280;11493;43.344;26.226;2023-06-01T11:26:23;99311.25;;;28.29;39.16
22653;BME280;11493;43.344;26.226;2023-06-01T11:28:52;99311.81;;;28.20;41.59
22653;BME280;11493;43.344;26.226;2023-06-01T11:31:20;99306.38;;;28.29;41.71
22653;BME280;11493;43.344;26.226;2023-06-01T11:33:52;99314.56;;;28.43;42.18
22653;BME280;11493;43.344;26.226;2023-06-01T11:36:20;99298.81;;;28.62;40.58
22653;BME280;11493;43.344;26.226;2023-06-01T11:38:51;99298.81;;;28.62;39.65
22653;BME280;11493;43.344;26.226;2023-06-01T11:41:21;99295.38;;;28.71;39.36
22653;BME280;11493;43.344;26.226;2023-06-01T11:43:54;99298.66;;;28.69;39.29
22653;BME280;11493;43.344;26.226;2023-06-01T11:46:22;99306.47;;;28.82;39.21
22653;BME280;11493;43.344;26.226;2023-06-01T11:49:06;99306.47;;;28.82;39.00
22653;BME280;11493;43.344;26.226;2023-06-01T11:51:38;99309.91;;;28.73;39.51
22653;BME280;11493;43.344;26.226;2023-06-01T11:54:09;99300.13;;;28.38;43.84
22653;BME280;11493;43.344;26.226;2023-06-01T11:56:36;99301.88;;;28.12;46.16
22653;BME280;11493;43.344;26.226;2023-06-01T11:59:06;99268.13;;;27.11;47.81
22653;BME280;11493;43.344;26.226;2023-06-01T12:01:42;99287.38;;;26.63;52.15
22653;BME280;11493;43.344;26.226;2023-06-01T12:04:18;99270.50;;;26.86;50.58
22653;BME280;11493;43.344;26.226;2023-06-01T12:06:46;99276.16;;;26.59;51.65
22653;BME280;11493;43.344;26.226;2023-06-01T12:09:13;99272.38;;;26.39;54.87
22653;BME280;11493;43.344;26.226;2023-06-01T12:11:43;99280.47;;;26.37;56.34
22653;BME280;11493;43.344;26.226;2023-06-01T12:14:12;99275.72;;;26.27;54.82
22653;BME280;11493;43.344;26.226;2023-06-01T12:16:54;99275.09;;;25.78;55.73
22653;BME280;11493;43.344;26.226;2023-06-01T12:19:22;99280.34;;;26.10;55.49
22653;BME280;11493;43.344;26.226;2023-06-01T12:21:50;99288.22;;;26.26;54.14
22653;BME280;11493;43.344;26.226;2023-06-01T12:24:18;99282.63;;;26.22;54.46
22653;BME280;11493;43.344;26.226;2023-06-01T12:26:55;99273.47;;;26.14;55.51
22653;BME280;11493;43.344;26.226;2023-06-01T12:29:38;99288.31;;;26.18;55.52
22653;BME280;11493;43.344;26.226;2023-06-01T12:32:06;99270.06;;;25.96;56.66
22653;BME280;11493;43.344;26.226;2023-06-01T12:34:35;99287.06;;;26.23;56.66
22653;BME280;11493;43.344;26.226;2023-06-01T12:37:16;99285.59;;;26.11;56.93
22653;BME280;11493;43.344;26.226;2023-06-01T12:39:51;99290.53;;;26.00;56.19
22653;BME280;11493;43.344;26.226;2023-06-01T12:42:19;99287.09;;;25.85;57.12
22653;BME280;11493;43.344;26.226;2023-06-01T12:44:53;99282.38;;;25.75;56.28
22653;BME280;11493;43.344;26.226;2023-06-01T12:47:20;99277.53;;;25.76;56.01
22653;BME280;11493;43.344;26.226;2023-06-01T12:50:09;99266.13;;;25.90;54.29
22653;BME280;11493;43.344;26.226;2023-06-01T12:52:39;99261.41;;;25.80;52.63
22653;BME280;11493;43.344;26.226;2023-06-01T12:55:07;99260.50;;;25.86;52.43
22653;BME280;11493;43.344;26.226;2023-06-01T12:57:36;99258.00;;;25.96;52.50
22653;BME280;11493;43.344;26.226;2023-06-01T13:00:06;99252.41;;;25.92;51.83
22653;BME280;11493;43.344;26.226;2023-06-01T13:02:34;99252.13;;;26.13;50.84
22653;BME280;11493;43.344;26.226;2023-06-01T13:05:02;99256.50;;;26.18;50.59
22653;BME280;11493;43.344;26.226;2023-06-01T13:07:31;99256.00;;;26.27;51.22
22653;BME280;11493;43.344;26.226;2023-06-01T13:09:58;99248.25;;;26.00;51.74
22653;BME280;11493;43.344;26.226;2023-06-01T13:12:26;99247.69;;;26.12;51.57
22653;BME280;11493;43.344;26.226;2023-06-01T13:14:55;99242.44;;;26.14;50.59
22653;BME280;11493;43.344;26.226;2023-06-01T13:17:24;99248.00;;;26.22;49.17
22653;BME280;11493;43.344;26.226;2023-06-01T13:19:52;99249.44;;;26.37;49.44
22653;BME280;11493;43.344;26.226;2023-06-01T13:22:19;99225.88;;;26.50;49.55
22653;BME280;11493;43.344;26.226;2023-06-01T13:24:47;99230.41;;;26.71;49.76
22653;BME280;11493;43.344;26.226;2023-06-01T13:27:31;99238.88;;;26.98;49.03
22653;BME280;11493;43.344;26.226;2023-06-01T13:29:58;99235.34;;;27.17;48.45
22653;BME280;11493;43.344;26.226;2023-06-01T13:32:25;99229.31;;;27.15;50.04
22653;BME280;11493;43.344;26.226;2023-06-01T13:34:53;99231.91;;;27.30;49.25